Terminal Aerodrome Forecast
Issued by NWS

Home | Current Version | Previous Version | Text Only | Print | Product List | Glossary On
Versions: 1 2 3 4 5 6 7 8 9 10 11 12 13 14 15 16 17 18
000
FTUS44 KMAF 251723
TAFPEQ
TAF
KPEQ 251723Z 2518/2618 VRB03KT P6SM SCT080 BKN250
     FM260100 12006KT P6SM FEW030 OVC100=

USA.gov is the U.S. government's official web portal to all federal, state and local government web resources and services.